Time;durP1;ratioP1;P1;durP2;ratioP2;P2;SDS_P1;SDS_P2;PMS_P1;PMS_P2;Temp;Humidity;BMP_temperature;BMP_pressure;BME280_temperature;BME280_humidity;BME280_pressure;Samples;Min_cycle;Max_cycle;Signal;HPM_P1;HPM_P2
2022/10/23 00:00:03;;;;;;;;;;;13.90;99.90;;;;;;5016231;28;19920;-77
2022/10/23 00:02:29;;;;;;;;;;;13.80;99.90;;;;;;5015787;28;19974;-77
2022/10/23 00:04:54;;;;;;;;;;;13.90;99.90;;;;;;5016383;28;19913;-77
2022/10/23 00:07:20;;;;;;;;;;;13.90;99.90;;;;;;5016341;28;19909;-77
2022/10/23 00:09:45;;;;;;;;;;;13.80;99.90;;;;;;5015839;28;19909;-75
2022/10/23 00:12:11;;;;;;;;;;;13.80;99.90;;;;;;5033470;28;20362;-75
2022/10/23 00:14:37;;;;;;;;;;;13.80;99.90;;;;;;5015574;28;19963;-76
2022/10/23 00:17:03;;;;;;;;;;;13.80;99.90;;;;;;5016233;28;19975;-77
2022/10/23 00:19:28;;;;;;;;;;;13.90;99.90;;;;;;5016353;28;20450;-76
2022/10/23 00:21:54;;;;;;;;;;;13.90;99.90;;;;;;5016082;28;19917;-76
2022/10/23 00:24:19;;;;;;;;;;;13.90;99.90;;;;;;5016352;28;20008;-75
2022/10/23 00:26:47;;;;;;;;;;;13.90;99.90;;;;;;5015577;28;19927;-76
2022/10/23 00:29:13;;;;;;;;;;;13.90;99.90;;;;;;5033232;28;19916;-76
2022/10/23 00:31:38;;;;;;;;;;;13.90;99.90;;;;;;5033239;28;19913;-76
2022/10/23 00:34:06;;;;;;;;;;;13.90;99.90;;;;;;5016281;28;19909;-75
2022/10/23 00:36:32;;;;;;;;;;;13.90;99.90;;;;;;5015971;28;19913;-77
2022/10/23 00:38:59;;;;;;;;;;;13.90;99.90;;;;;;5033588;28;19993;-77
2022/10/23 00:41:31;;;;;;;;;;;13.80;99.90;;;;;;5015814;28;20430;-77
2022/10/23 00:43:58;;;;;;;;;;;13.80;99.90;;;;;;5015252;28;19924;-77
2022/10/23 00:46:24;;;;;;;;;;;13.80;99.90;;;;;;5015409;28;19909;-76
2022/10/23 00:48:49;;;;;;;;;;;13.80;99.90;;;;;;5014852;28;19996;-80
2022/10/23 00:51:16;;;;;;;;;;;13.80;99.90;;;;;;5033397;28;19916;-83
2022/10/23 00:53:42;;;;;;;;;;;13.70;99.90;;;;;;5015386;28;19913;-81
2022/10/23 00:56:09;;;;;;;;;;;13.80;99.90;;;;;;5015770;28;19967;-85
2022/10/23 00:58:35;;;;;;;;;;;13.70;99.90;;;;;;5014879;28;19916;-87
2022/10/23 01:01:01;;;;;;;;;;;13.80;99.90;;;;;;5038355;28;19912;-87
2022/10/23 01:03:27;;;;;;;;;;;13.80;99.90;;;;;;5053606;28;20014;-84
2022/10/23 01:05:58;;;;;;;;;;;13.70;99.90;;;;;;5053262;28;19931;-84
2022/10/23 01:08:33;;;;;;;;;;;13.70;99.90;;;;;;5056806;28;19909;-84
2022/10/23 01:11:22;;;;;;;;;;;13.70;99.90;;;;;;5035930;28;19913;-78
2022/10/23 01:14:04;;;;;;;;;;;13.70;99.90;;;;;;5026379;28;20327;-77
2022/10/23 01:16:29;;;;;;;;;;;13.60;99.90;;;;;;5034822;28;19920;-76
2022/10/23 01:19:02;;;;;;;;;;;13.60;99.90;;;;;;5053639;28;19996;-76
2022/10/23 01:21:34;;;;;;;;;;;13.70;99.90;;;;;;5038610;28;20406;-75
2022/10/23 01:24:08;;;;;;;;;;;13.70;99.90;;;;;;5037814;28;19927;-75
2022/10/23 01:26:53;;;;;;;;;;;13.70;99.90;;;;;;5018058;28;20339;-77
2022/10/23 01:29:23;;;;;;;;;;;13.70;99.90;;;;;;5018566;28;19932;-75
2022/10/23 01:31:57;;;;;;;;;;;13.70;99.90;;;;;;5036151;28;20266;-74
2022/10/23 01:34:31;;;;;;;;;;;13.70;99.90;;;;;;5018651;28;20371;-75
2022/10/23 01:36:58;;;;;;;;;;;13.70;99.90;;;;;;5017991;28;19909;-75
2022/10/23 01:39:26;;;;;;;;;;;13.70;99.90;;;;;;5036397;28;19909;-76
2022/10/23 01:41:58;;;;;;;;;;;13.70;99.90;;;;;;5018231;28;19909;-75
2022/10/23 01:44:27;;;;;;;;;;;13.70;99.90;;;;;;5018555;28;19917;-75
2022/10/23 01:46:53;;;;;;;;;;;13.80;99.90;;;;;;5017819;28;19909;-75
2022/10/23 01:49:19;;;;;;;;;;;13.70;99.90;;;;;;5019040;28;20405;-76
2022/10/23 01:51:47;;;;;;;;;;;13.70;99.90;;;;;;5018095;28;19909;-75
2022/10/23 01:54:14;;;;;;;;;;;13.70;99.90;;;;;;5035959;28;19909;-76
2022/10/23 01:56:42;;;;;;;;;;;13.70;99.90;;;;;;5035766;28;20069;-75
2022/10/23 01:59:09;;;;;;;;;;;13.70;99.90;;;;;;5037299;28;19916;-76
2022/10/23 02:01:36;;;;;;;;;;;13.70;99.90;;;;;;5031912;28;19916;-75
2022/10/23 02:04:03;;;;;;;;;;;13.60;99.90;;;;;;5028071;28;20048;-75
2022/10/23 02:06:29;;;;;;;;;;;13.60;99.90;;;;;;5019337;28;19917;-76
2022/10/23 02:08:55;;;;;;;;;;;13.60;99.90;;;;;;5024140;28;20140;-76
2022/10/23 02:11:20;;;;;;;;;;;13.70;99.90;;;;;;5030311;28;19959;-76
2022/10/23 02:13:49;;;;;;;;;;;13.70;99.90;;;;;;5027583;28;19916;-75
2022/10/23 02:16:22;;;;;;;;;;;13.70;99.90;;;;;;5018184;28;19909;-76
2022/10/23 02:18:57;;;;;;;;;;;13.70;99.90;;;;;;5017556;28;20377;-76
2022/10/23 02:21:52;;;;;;;;;;;13.70;99.90;;;;;;5018207;28;19992;-76
2022/10/23 02:24:21;;;;;;;;;;;13.70;99.90;;;;;;5005683;28;19917;-75
2022/10/23 02:26:51;;;;;;;;;;;13.70;99.90;;;;;;5035135;28;19928;-76
2022/10/23 02:29:16;;;;;;;;;;;13.70;99.90;;;;;;5018172;28;19910;-76
2022/10/23 02:31:42;;;;;;;;;;;13.70;99.90;;;;;;5017630;28;20432;-75
2022/10/23 02:34:08;;;;;;;;;;;13.70;99.90;;;;;;5017907;28;19917;-75
2022/10/23 02:36:34;;;;;;;;;;;13.70;99.90;;;;;;5035361;28;19917;-76
2022/10/23 02:38:59;;;;;;;;;;;13.70;99.90;;;;;;5017252;28;20302;-76
2022/10/23 02:41:42;;;;;;;;;;;13.70;99.90;;;;;;5018094;28;19920;-76
2022/10/23 02:44:10;;;;;;;;;;;13.70;99.90;;;;;;5034800;28;20267;-76
2022/10/23 02:46:36;;;;;;;;;;;13.70;99.90;;;;;;5017570;28;19909;-77
2022/10/23 02:49:08;;;;;;;;;;;13.70;99.90;;;;;;5034698;28;20004;-82
2022/10/23 02:51:37;;;;;;;;;;;13.70;99.90;;;;;;5018640;28;19909;-81
2022/10/23 02:54:13;;;;;;;;;;;13.70;99.90;;;;;;5018895;28;19916;-79
2022/10/23 02:56:43;;;;;;;;;;;13.70;99.90;;;;;;5035603;28;19920;-82
2022/10/23 02:59:13;;;;;;;;;;;13.70;99.90;;;;;;5035580;28;19963;-82
2022/10/23 03:01:50;;;;;;;;;;;13.70;99.90;;;;;;5035542;28;19913;-87
2022/10/23 03:04:16;;;;;;;;;;;13.70;99.90;;;;;;5054285;28;20384;-85
2022/10/23 03:06:42;;;;;;;;;;;13.70;99.90;;;;;;5036220;28;19974;-85
2022/10/23 03:09:08;;;;;;;;;;;13.70;99.90;;;;;;5054187;28;19931;-85
2022/10/23 03:11:34;;;;;;;;;;;13.80;99.90;;;;;;5036564;28;20351;-85
2022/10/23 03:13:59;;;;;;;;;;;13.70;99.90;;;;;;5035874;28;19944;-84
2022/10/23 03:16:25;;;;;;;;;;;13.80;99.90;;;;;;5054378;28;19909;-79
2022/10/23 03:18:51;;;;;;;;;;;13.70;99.90;;;;;;5036404;28;20365;-78
2022/10/23 03:21:17;;;;;;;;;;;13.80;99.90;;;;;;5054395;28;19909;-78
2022/10/23 03:23:42;;;;;;;;;;;13.70;99.90;;;;;;5053430;28;19970;-79
2022/10/23 03:26:08;;;;;;;;;;;13.80;99.90;;;;;;5036288;28;19912;-77
2022/10/23 03:28:34;;;;;;;;;;;13.80;99.90;;;;;;5055544;28;19947;-86
2022/10/23 03:31:02;;;;;;;;;;;13.80;99.90;;;;;;5036810;28;19924;-89
2022/10/23 03:33:28;;;;;;;;;;;13.80;99.90;;;;;;5037057;28;19908;-89
2022/10/23 03:35:54;;;;;;;;;;;13.80;99.90;;;;;;5053724;28;19919;-86
2022/10/23 03:38:20;;;;;;;;;;;13.80;99.90;;;;;;5054107;28;19909;-84
2022/10/23 03:40:45;;;;;;;;;;;13.90;99.90;;;;;;5035196;28;19915;-80
2022/10/23 03:43:11;;;;;;;;;;;13.90;99.90;;;;;;5035992;28;19917;-77
2022/10/23 03:45:37;;;;;;;;;;;13.80;99.90;;;;;;5052205;28;20366;-78
2022/10/23 03:48:06;;;;;;;;;;;13.80;99.90;;;;;;5051866;28;19909;-76
2022/10/23 03:50:32;;;;;;;;;;;13.80;99.90;;;;;;5035740;28;20007;-76
2022/10/23 03:52:57;;;;;;;;;;;13.80;99.90;;;;;;5035166;28;19951;-76
2022/10/23 03:55:25;;;;;;;;;;;13.90;99.90;;;;;;5053746;28;20483;-75
2022/10/23 03:57:52;;;;;;;;;;;13.90;99.90;;;;;;5035063;28;19959;-76
2022/10/23 04:00:17;;;;;;;;;;;13.90;99.90;;;;;;5035531;28;19909;-81
2022/10/23 04:02:43;;;;;;;;;;;13.90;99.90;;;;;;5034847;28;19923;-81
2022/10/23 04:05:09;;;;;;;;;;;13.90;99.90;;;;;;5035418;28;20297;-83
2022/10/23 04:07:35;;;;;;;;;;;13.80;99.90;;;;;;5053667;28;20279;-82
2022/10/23 04:10:00;;;;;;;;;;;13.90;99.90;;;;;;5034915;28;20018;-80
2022/10/23 04:12:26;;;;;;;;;;;13.90;99.90;;;;;;5053608;28;20000;-80
2022/10/23 04:14:51;;;;;;;;;;;13.90;99.90;;;;;;5052525;28;19915;-78
2022/10/23 04:17:17;;;;;;;;;;;13.90;99.90;;;;;;5035353;28;20361;-77
2022/10/23 04:19:43;;;;;;;;;;;13.90;99.90;;;;;;5051796;28;19909;-79
2022/10/23 04:22:08;;;;;;;;;;;13.80;99.90;;;;;;5034821;28;19924;-77
2022/10/23 04:24:34;;;;;;;;;;;13.90;99.90;;;;;;5053839;28;19932;-76
2022/10/23 04:26:59;;;;;;;;;;;13.90;99.90;;;;;;5026253;28;19944;-76
2022/10/23 04:29:25;;;;;;;;;;;13.90;99.90;;;;;;5033167;28;19999;-76
2022/10/23 04:31:50;;;;;;;;;;;13.90;99.90;;;;;;5032645;28;19913;-76
2022/10/23 04:34:17;;;;;;;;;;;14.00;99.90;;;;;;5032634;28;20329;-76
2022/10/23 04:36:42;;;;;;;;;;;13.90;99.90;;;;;;5033369;28;19909;-74
2022/10/23 04:39:08;;;;;;;;;;;14.00;99.90;;;;;;5014815;28;20115;-75
2022/10/23 04:41:34;;;;;;;;;;;14.00;99.90;;;;;;5015536;28;20358;-75
2022/10/23 04:43:59;;;;;;;;;;;14.00;99.90;;;;;;5032454;28;19924;-75
2022/10/23 04:46:25;;;;;;;;;;;14.00;99.90;;;;;;5015509;28;19909;-75
2022/10/23 04:48:51;;;;;;;;;;;14.00;99.90;;;;;;5014819;28;20317;-74
2022/10/23 04:51:16;;;;;;;;;;;14.00;99.90;;;;;;5015473;28;19909;-76
2022/10/23 04:53:42;;;;;;;;;;;14.10;99.90;;;;;;5034851;28;19932;-81
2022/10/23 04:56:11;;;;;;;;;;;14.00;99.90;;;;;;5018620;28;20400;-85
2022/10/23 04:58:37;;;;;;;;;;;14.00;99.90;;;;;;5019126;28;19910;-84
2022/10/23 05:01:02;;;;;;;;;;;14.00;99.90;;;;;;5018598;28;19920;-83
2022/10/23 05:03:28;;;;;;;;;;;14.00;99.90;;;;;;5036549;28;19917;-82
2022/10/23 05:05:54;;;;;;;;;;;14.00;99.90;;;;;;5018518;28;19916;-81
2022/10/23 05:08:21;;;;;;;;;;;14.00;99.90;;;;;;5019076;28;19941;-78
2022/10/23 05:10:47;;;;;;;;;;;14.00;99.90;;;;;;5018708;28;19909;-78
2022/10/23 05:13:12;;;;;;;;;;;13.90;99.90;;;;;;5018613;28;19932;-74
2022/10/23 05:15:38;;;;;;;;;;;13.90;99.90;;;;;;5018775;28;19959;-75
2022/10/23 05:18:10;;;;;;;;;;;14.00;99.90;;;;;;5018200;28;19909;-75
2022/10/23 05:20:37;;;;;;;;;;;13.90;99.90;;;;;;5045636;28;19953;-74
2022/10/23 05:23:05;;;;;;;;;;;14.00;99.90;;;;;;5023684;28;20338;-76
2022/10/23 05:25:31;;;;;;;;;;;13.90;99.90;;;;;;5018654;28;19909;-75
2022/10/23 05:27:56;;;;;;;;;;;13.90;99.90;;;;;;5017931;28;19928;-76
2022/10/23 05:30:22;;;;;;;;;;;13.90;99.90;;;;;;5018704;28;19909;-75
2022/10/23 05:32:48;;;;;;;;;;;13.90;99.90;;;;;;5018386;28;19996;-76
2022/10/23 05:35:16;;;;;;;;;;;14.00;99.90;;;;;;5018271;28;19909;-76
2022/10/23 05:37:42;;;;;;;;;;;14.00;99.90;;;;;;5018656;28;19909;-77
2022/10/23 05:40:08;;;;;;;;;;;14.00;99.90;;;;;;5035805;28;19967;-75
2022/10/23 05:42:34;;;;;;;;;;;14.00;99.90;;;;;;5018231;28;19917;-75
2022/10/23 05:44:59;;;;;;;;;;;14.00;99.90;;;;;;5017931;28;19910;-76
2022/10/23 05:47:25;;;;;;;;;;;14.10;99.90;;;;;;5018276;28;20445;-75
2022/10/23 05:49:50;;;;;;;;;;;14.00;99.90;;;;;;5017816;28;19916;-77
2022/10/23 05:52:19;;;;;;;;;;;14.00;99.90;;;;;;5018564;28;20347;-75
2022/10/23 05:54:44;;;;;;;;;;;14.00;99.90;;;;;;5035821;28;19917;-76
2022/10/23 05:57:10;;;;;;;;;;;14.00;99.90;;;;;;5035102;28;19905;-78
2022/10/23 05:59:35;;;;;;;;;;;14.00;99.90;;;;;;5035784;28;19959;-76
2022/10/23 06:02:02;;;;;;;;;;;14.10;99.90;;;;;;5037661;28;19909;-76
2022/10/23 06:04:28;;;;;;;;;;;14.00;99.90;;;;;;5021240;28;19917;-75
2022/10/23 06:06:53;;;;;;;;;;;14.00;99.90;;;;;;5018192;28;19915;-76
2022/10/23 06:09:19;;;;;;;;;;;14.10;99.90;;;;;;5018593;28;19921;-77
2022/10/23 06:11:45;;;;;;;;;;;14.00;99.90;;;;;;5042033;28;19933;-76
2022/10/23 06:14:11;;;;;;;;;;;14.00;99.90;;;;;;5045814;28;19995;-75
2022/10/23 06:16:36;;;;;;;;;;;14.00;99.90;;;;;;5039256;28;20370;-74
2022/10/23 06:19:02;;;;;;;;;;;14.00;99.90;;;;;;5035053;28;19964;-75
2022/10/23 06:21:27;;;;;;;;;;;14.00;99.90;;;;;;5035920;28;20012;-76
2022/10/23 06:23:54;;;;;;;;;;;14.00;99.90;;;;;;5017215;28;19924;-76
2022/10/23 06:26:19;;;;;;;;;;;14.00;99.90;;;;;;5035437;28;19913;-75
2022/10/23 06:28:45;;;;;;;;;;;14.00;99.90;;;;;;5017408;28;19921;-75
2022/10/23 06:31:11;;;;;;;;;;;14.10;99.90;;;;;;5034691;28;19953;-75
2022/10/23 06:33:37;;;;;;;;;;;14.00;99.90;;;;;;5017521;28;19966;-80
2022/10/23 06:36:04;;;;;;;;;;;14.10;99.90;;;;;;5017033;28;20015;-84
2022/10/23 06:38:35;;;;;;;;;;;14.00;99.90;;;;;;5017505;28;20000;-84
2022/10/23 06:41:01;;;;;;;;;;;14.10;99.90;;;;;;5017061;28;19996;-85
2022/10/23 06:43:27;;;;;;;;;;;14.00;99.90;;;;;;5017251;28;20387;-77
2022/10/23 06:45:52;;;;;;;;;;;14.10;99.90;;;;;;5034705;28;19916;-77
2022/10/23 06:48:18;;;;;;;;;;;14.10;99.90;;;;;;5016818;28;19944;-77
2022/10/23 06:50:43;;;;;;;;;;;14.10;99.90;;;;;;5034760;28;19915;-76
2022/10/23 06:53:11;;;;;;;;;;;14.00;99.90;;;;;;5016380;28;19940;-76
2022/10/23 06:55:38;;;;;;;;;;;14.10;99.90;;;;;;5034558;28;19909;-77
2022/10/23 06:58:09;;;;;;;;;;;14.10;99.90;;;;;;5016288;28;19909;-75
2022/10/23 07:00:36;;;;;;;;;;;14.10;99.90;;;;;;5016524;28;20029;-76
2022/10/23 07:03:02;;;;;;;;;;;14.10;99.90;;;;;;5024684;28;20365;-77
2022/10/23 07:05:27;;;;;;;;;;;14.10;99.90;;;;;;5009840;28;19995;-76
2022/10/23 07:07:53;;;;;;;;;;;14.10;99.90;;;;;;5033595;28;19913;-76
2022/10/23 07:10:19;;;;;;;;;;;14.10;99.90;;;;;;5049513;28;19919;-76
2022/10/23 07:12:46;;;;;;;;;;;14.00;99.90;;;;;;5016600;28;20007;-76
2022/10/23 07:15:12;;;;;;;;;;;14.10;99.90;;;;;;5048891;28;19909;-76
2022/10/23 07:17:37;;;;;;;;;;;14.10;99.90;;;;;;5049173;28;20001;-76
2022/10/23 07:20:03;;;;;;;;;;;14.10;99.90;;;;;;5033451;28;20386;-74
2022/10/23 07:22:28;;;;;;;;;;;14.10;99.90;;;;;;5034117;28;19921;-76
2022/10/23 07:24:54;;;;;;;;;;;14.10;99.90;;;;;;5034414;28;19917;-77
2022/10/23 07:27:20;;;;;;;;;;;14.10;99.90;;;;;;5048997;28;19928;-75
2022/10/23 07:29:48;;;;;;;;;;;14.10;99.90;;;;;;5033784;28;19916;-76
2022/10/23 07:32:14;;;;;;;;;;;14.10;99.90;;;;;;5033799;28;19968;-77
2022/10/23 07:34:39;;;;;;;;;;;14.10;99.90;;;;;;5049312;28;20236;-77
2022/10/23 07:37:07;;;;;;;;;;;14.10;99.90;;;;;;5015976;28;19909;-88
2022/10/23 07:39:33;;;;;;;;;;;14.10;99.90;;;;;;5049602;28;19916;-90
2022/10/23 07:41:58;;;;;;;;;;;14.20;99.90;;;;;;5048745;28;19913;-89
2022/10/23 07:44:24;;;;;;;;;;;14.10;99.90;;;;;;5034363;28;20274;-90
2022/10/23 07:46:50;;;;;;;;;;;14.10;99.90;;;;;;5033986;28;19909;-88
2022/10/23 07:49:15;;;;;;;;;;;14.10;99.90;;;;;;5048815;28;19916;-87
2022/10/23 07:51:41;;;;;;;;;;;14.10;99.90;;;;;;5049534;28;19959;-88
2022/10/23 07:54:08;;;;;;;;;;;14.10;99.90;;;;;;5033284;28;19953;-85
2022/10/23 07:56:34;;;;;;;;;;;14.10;99.90;;;;;;5049114;28;19955;-83
2022/10/23 07:59:00;;;;;;;;;;;14.10;99.90;;;;;;5048425;28;19944;-79
2022/10/23 08:01:38;;;;;;;;;;;14.10;99.90;;;;;;5048959;28;19916;-77
2022/10/23 08:04:04;;;;;;;;;;;14.10;99.90;;;;;;5048239;28;20020;-77
2022/10/23 08:06:29;;;;;;;;;;;14.10;99.90;;;;;;5033132;28;19920;-76
2022/10/23 08:08:55;;;;;;;;;;;14.10;99.90;;;;;;5048734;28;19910;-76
2022/10/23 08:11:25;;;;;;;;;;;14.10;99.90;;;;;;5015149;28;19920;-77
2022/10/23 08:13:52;;;;;;;;;;;14.10;99.90;;;;;;5015654;28;19955;-76
2022/10/23 08:16:18;;;;;;;;;;;14.10;99.90;;;;;;5033101;28;19916;-76
2022/10/23 08:18:44;;;;;;;;;;;14.20;99.90;;;;;;5033021;28;19909;-78
2022/10/23 08:21:10;;;;;;;;;;;14.20;99.90;;;;;;5014909;28;19971;-77
2022/10/23 08:23:36;;;;;;;;;;;14.20;99.90;;;;;;5048476;28;19953;-77
2022/10/23 08:26:02;;;;;;;;;;;14.20;99.90;;;;;;5017382;28;20346;-77
2022/10/23 08:28:28;;;;;;;;;;;14.20;99.90;;;;;;5051387;28;19921;-78
2022/10/23 08:30:54;;;;;;;;;;;14.20;99.90;;;;;;5048289;28;19973;-79
2022/10/23 08:33:20;;;;;;;;;;;14.20;99.90;;;;;;5033975;28;19909;-83
2022/10/23 08:35:45;;;;;;;;;;;14.20;99.90;;;;;;5035577;28;19916;-86
2022/10/23 08:38:11;;;;;;;;;;;14.20;99.90;;;;;;5015118;28;19909;-87
2022/10/23 08:40:37;;;;;;;;;;;14.20;99.90;;;;;;5015309;28;19909;-80
2022/10/23 08:43:08;;;;;;;;;;;14.20;99.90;;;;;;5014801;28;19921;-83
2022/10/23 08:45:37;;;;;;;;;;;14.20;99.90;;;;;;5015328;28;19917;-82
2022/10/23 08:48:08;;;;;;;;;;;14.20;99.90;;;;;;5014738;28;20281;-83
2022/10/23 08:50:37;;;;;;;;;;;14.20;99.90;;;;;;5033381;28;19947;-82
2022/10/23 08:53:03;;;;;;;;;;;14.30;99.90;;;;;;5039815;28;20327;-81
2022/10/23 08:55:31;;;;;;;;;;;14.30;99.90;;;;;;5052967;28;19913;-79
2022/10/23 08:58:02;;;;;;;;;;;14.30;99.90;;;;;;5052690;28;20334;-77
2022/10/23 09:00:28;;;;;;;;;;;14.30;99.90;;;;;;5052225;28;19916;-79
2022/10/23 09:02:54;;;;;;;;;;;14.30;99.90;;;;;;5052671;28;19917;-81
2022/10/23 09:05:23;;;;;;;;;;;14.30;99.90;;;;;;5051848;28;20392;-81
2022/10/23 09:08:07;;;;;;;;;;;14.30;99.90;;;;;;5050625;28;20285;-81
2022/10/23 09:10:41;;;;;;;;;;;14.30;99.90;;;;;;5051949;28;20251;-82
2022/10/23 09:13:16;;;;;;;;;;;14.30;99.90;;;;;;5051401;28;19951;-84
2022/10/23 09:15:46;;;;;;;;;;;14.30;99.90;;;;;;5051833;28;19962;-81
2022/10/23 09:18:14;;;;;;;;;;;14.30;99.90;;;;;;5051026;28;19909;-83
2022/10/23 09:20:40;;;;;;;;;;;14.30;99.90;;;;;;5033976;28;19919;-82
2022/10/23 09:23:20;;;;;;;;;;;14.30;99.90;;;;;;5033729;28;19917;-80
2022/10/23 09:25:47;;;;;;;;;;;14.30;99.90;;;;;;5051690;28;19916;-79
2022/10/23 09:28:20;;;;;;;;;;;14.30;99.90;;;;;;5051135;28;20392;-81
2022/10/23 09:30:46;;;;;;;;;;;14.40;99.90;;;;;;5051796;28;20351;-83
2022/10/23 09:33:13;;;;;;;;;;;14.40;99.90;;;;;;5051034;28;19916;-83
2022/10/23 09:35:50;;;;;;;;;;;14.40;99.90;;;;;;5017552;28;19909;-82
2022/10/23 09:38:25;;;;;;;;;;;14.40;99.90;;;;;;5051069;28;19979;-81
2022/10/23 09:40:50;;;;;;;;;;;14.50;99.90;;;;;;5037064;28;19909;-81
2022/10/23 09:43:20;;;;;;;;;;;14.50;99.90;;;;;;5054664;28;19971;-80
2022/10/23 09:45:54;;;;;;;;;;;14.50;99.90;;;;;;5055084;28;19912;-76
2022/10/23 09:48:20;;;;;;;;;;;14.50;99.90;;;;;;5054687;28;20717;-75
2022/10/23 09:50:50;;;;;;;;;;;14.60;99.90;;;;;;5055076;28;19948;-74
2022/10/23 09:53:25;;;;;;;;;;;14.60;99.90;;;;;;5054478;28;19995;-74
2022/10/23 09:55:52;;;;;;;;;;;14.70;99.90;;;;;;5055131;28;19913;-75
2022/10/23 09:58:19;;;;;;;;;;;14.70;99.90;;;;;;5055010;28;19963;-73
2022/10/23 10:00:45;;;;;;;;;;;14.70;99.90;;;;;;5054823;28;20011;-74
2022/10/23 10:03:21;;;;;;;;;;;14.80;99.90;;;;;;5053880;28;19917;-73
2022/10/23 10:05:54;;;;;;;;;;;14.80;99.90;;;;;;5055131;28;19908;-74
2022/10/23 10:08:31;;;;;;;;;;;14.90;99.90;;;;;;5054316;28;19952;-74
2022/10/23 10:11:00;;;;;;;;;;;15.00;99.90;;;;;;5054593;28;19913;-73
2022/10/23 10:13:25;;;;;;;;;;;15.10;99.90;;;;;;5054977;28;20018;-73
2022/10/23 10:15:54;;;;;;;;;;;15.20;99.90;;;;;;5054362;28;19961;-74
2022/10/23 10:18:22;;;;;;;;;;;15.20;99.90;;;;;;5054198;28;19967;-74
2022/10/23 10:21:07;;;;;;;;;;;15.20;99.90;;;;;;5053387;28;19920;-74
2022/10/23 10:23:32;;;;;;;;;;;15.20;99.90;;;;;;5054240;28;19917;-74
2022/10/23 10:26:10;;;;;;;;;;;15.30;99.90;;;;;;5054448;28;19930;-73
2022/10/23 10:28:38;;;;;;;;;;;15.40;99.90;;;;;;5053634;28;20394;-74
2022/10/23 10:31:07;;;;;;;;;;;15.40;99.90;;;;;;5052768;28;19913;-75
2022/10/23 10:33:32;;;;;;;;;;;15.50;99.90;;;;;;5054084;28;19909;-74
2022/10/23 10:36:07;;;;;;;;;;;15.50;99.90;;;;;;5042530;28;19913;-74
2022/10/23 10:38:58;;;;;;;;;;;15.60;99.90;;;;;;5034336;28;19916;-74
2022/10/23 10:41:40;;;;;;;;;;;15.60;99.90;;;;;;5030464;28;19910;-74
2022/10/23 10:44:24;;;;;;;;;;;15.60;99.90;;;;;;5015756;28;19917;-75
2022/10/23 10:47:02;;;;;;;;;;;15.70;99.90;;;;;;5016636;28;19952;-75
2022/10/23 10:49:41;;;;;;;;;;;15.70;99.90;;;;;;5016361;28;19963;-74
2022/10/23 10:52:33;;;;;;;;;;;15.60;99.90;;;;;;5014640;28;19909;-75
2022/10/23 10:55:19;;;;;;;;;;;15.70;99.90;;;;;;5010842;28;19909;-76
2022/10/23 10:57:47;;;;;;;;;;;15.70;99.90;;;;;;5033061;28;20332;-73
2022/10/23 11:00:13;;;;;;;;;;;15.70;99.90;;;;;;5033133;28;19909;-73
2022/10/23 11:02:50;;;;;;;;;;;15.60;99.90;;;;;;5033653;28;19916;-74
2022/10/23 11:05:36;;;;;;;;;;;15.70;99.90;;;;;;5015617;28;19915;-74
2022/10/23 11:08:01;;;;;;;;;;;15.70;99.90;;;;;;5033866;28;20018;-75
2022/10/23 11:10:27;;;;;;;;;;;15.80;99.90;;;;;;5033352;28;20049;-74
2022/10/23 11:12:53;;;;;;;;;;;15.90;99.90;;;;;;5015829;28;19909;-75
2022/10/23 11:15:27;;;;;;;;;;;15.90;99.90;;;;;;5033137;28;19913;-75
2022/10/23 11:17:55;;;;;;;;;;;16.00;99.90;;;;;;5033340;28;20278;-76
2022/10/23 11:20:24;;;;;;;;;;;16.10;99.90;;;;;;5033149;28;19909;-75
2022/10/23 11:22:53;;;;;;;;;;;16.20;99.90;;;;;;5033351;28;19928;-75
2022/10/23 11:25:18;;;;;;;;;;;16.20;99.90;;;;;;5032729;28;19909;-75
2022/10/23 11:27:44;;;;;;;;;;;16.10;99.90;;;;;;5032049;28;19928;-75
2022/10/23 11:30:24;;;;;;;;;;;16.20;99.90;;;;;;5015027;28;19952;-76
2022/10/23 11:32:58;;;;;;;;;;;16.20;99.90;;;;;;5015497;28;19913;-75
2022/10/23 11:35:36;;;;;;;;;;;16.20;99.90;;;;;;5032334;28;19905;-75
2022/10/23 11:38:18;;;;;;;;;;;16.30;99.90;;;;;;5033648;28;19909;-76
2022/10/23 11:41:04;;;;;;;;;;;16.30;99.90;;;;;;5015665;28;20055;-75
2022/10/23 11:43:35;;;;;;;;;;;16.40;99.90;;;;;;5014480;28;19921;-74
2022/10/23 11:46:30;;;;;;;;;;;16.40;99.90;;;;;;5015587;28;19916;-75
2022/10/23 11:48:56;;;;;;;;;;;16.40;99.90;;;;;;5009833;28;19909;-75
2022/10/23 11:51:28;;;;;;;;;;;16.50;99.90;;;;;;5032147;28;19962;-74
2022/10/23 11:54:04;;;;;;;;;;;16.50;99.90;;;;;;5032854;28;20112;-76
2022/10/23 11:56:30;;;;;;;;;;;16.60;99.90;;;;;;5032638;28;19913;-75
2022/10/23 11:58:57;;;;;;;;;;;16.60;99.90;;;;;;5032740;28;20385;-75
2022/10/23 12:01:38;;;;;;;;;;;16.50;99.90;;;;;;5032572;28;19913;-74
2022/10/23 12:04:12;;;;;;;;;;;16.50;99.90;;;;;;5015167;28;19917;-76
2022/10/23 12:06:46;;;;;;;;;;;16.40;99.90;;;;;;5033236;28;19909;-75
2022/10/23 12:09:26;;;;;;;;;;;16.40;99.90;;;;;;5032709;28;19909;-74
2022/10/23 12:12:01;;;;;;;;;;;16.30;99.90;;;;;;5033332;28;19964;-75
2022/10/23 12:14:35;;;;;;;;;;;16.30;99.90;;;;;;5015227;28;20026;-76
2022/10/23 12:17:02;;;;;;;;;;;16.30;99.90;;;;;;5015518;28;19932;-75
2022/10/23 12:19:29;;;;;;;;;;;16.30;99.90;;;;;;5032864;28;19909;-76
2022/10/23 12:21:57;;;;;;;;;;;16.40;99.90;;;;;;5033101;28;20031;-75
2022/10/23 12:24:41;;;;;;;;;;;16.40;99.90;;;;;;5032664;28;19964;-76
2022/10/23 12:27:27;;;;;;;;;;;16.50;99.90;;;;;;5014850;28;19948;-75
2022/10/23 12:29:55;;;;;;;;;;;16.50;99.90;;;;;;4971935;28;19911;-75
2022/10/23 12:32:28;;;;;;;;;;;16.60;99.90;;;;;;4971100;28;19910;-74
2022/10/23 12:35:14;;;;;;;;;;;16.60;99.90;;;;;;4971910;28;20327;-76
2022/10/23 12:37:58;;;;;;;;;;;16.70;99.90;;;;;;4972183;28;19914;-74
2022/10/23 12:40:28;;;;;;;;;;;16.70;99.90;;;;;;4971128;28;20080;-75
2022/10/23 12:42:55;;;;;;;;;;;16.80;99.90;;;;;;4971898;28;19981;-76
2022/10/23 12:45:22;;;;;;;;;;;16.80;99.90;;;;;;4971737;28;19984;-76
2022/10/23 12:47:48;;;;;;;;;;;16.90;99.90;;;;;;4971831;28;20005;-74
2022/10/23 12:50:18;;;;;;;;;;;16.90;99.90;;;;;;4953944;28;20042;-75
2022/10/23 12:52:54;;;;;;;;;;;16.90;99.90;;;;;;4971309;28;20005;-74
2022/10/23 12:55:20;;;;;;;;;;;16.90;99.90;;;;;;4971049;28;19922;-75
2022/10/23 12:57:45;;;;;;;;;;;17.10;99.90;;;;;;4971607;28;20299;-75
2022/10/23 13:00:19;;;;;;;;;;;17.10;99.90;;;;;;4971228;28;20079;-76
2022/10/23 13:02:45;;;;;;;;;;;17.10;99.90;;;;;;4971127;28;19910;-75
2022/10/23 13:05:13;;;;;;;;;;;17.20;99.90;;;;;;4970709;28;19917;-76
2022/10/23 13:07:43;;;;;;;;;;;17.20;99.90;;;;;;5018864;28;19909;-75
2022/10/23 13:10:12;;;;;;;;;;;17.20;99.90;;;;;;5032186;28;20000;-77
2022/10/23 13:12:39;;;;;;;;;;;17.30;99.90;;;;;;5032639;28;20247;-74
2022/10/23 13:15:09;;;;;;;;;;;17.40;99.90;;;;;;5034834;28;19916;-75
2022/10/23 13:17:35;;;;;;;;;;;17.30;99.90;;;;;;5036696;28;19915;-76
2022/10/23 13:20:16;;;;;;;;;;;17.40;99.90;;;;;;5018582;28;19910;-76
2022/10/23 13:22:41;;;;;;;;;;;17.40;99.90;;;;;;5018725;28;20031;-76
2022/10/23 13:25:24;;;;;;;;;;;17.40;99.90;;;;;;5018199;28;19913;-75
2022/10/23 13:27:50;;;;;;;;;;;17.40;99.90;;;;;;5018744;28;19952;-76
2022/10/23 13:30:26;;;;;;;;;;;17.40;99.90;;;;;;5035641;28;19963;-76
2022/10/23 13:32:52;;;;;;;;;;;17.50;99.90;;;;;;5036573;28;19909;-74
2022/10/23 13:35:21;;;;;;;;;;;17.50;99.90;;;;;;5017969;28;19971;-76
2022/10/23 13:37:47;;;;;;;;;;;17.50;99.90;;;;;;5035959;28;20313;-74
2022/10/23 13:40:24;;;;;;;;;;;17.50;99.90;;;;;;5035268;28;19960;-75
2022/10/23 13:42:51;;;;;;;;;;;17.50;99.90;;;;;;5018097;28;19921;-76
2022/10/23 13:45:21;;;;;;;;;;;17.40;99.90;;;;;;5035457;28;19916;-76
2022/10/23 13:47:47;;;;;;;;;;;17.40;99.90;;;;;;5018219;28;20000;-76
2022/10/23 13:50:12;;;;;;;;;;;17.30;99.90;;;;;;5035298;28;19992;-76
2022/10/23 13:52:38;;;;;;;;;;;17.30;99.90;;;;;;5035719;28;19909;-74
2022/10/23 13:55:21;;;;;;;;;;;17.20;99.90;;;;;;5035696;28;20028;-75
2022/10/23 13:57:46;;;;;;;;;;;17.10;99.90;;;;;;5035580;28;20401;-75
2022/10/23 14:00:13;;;;;;;;;;;17.10;99.90;;;;;;5001189;28;19909;-75
2022/10/23 14:02:40;;;;;;;;;;;17.00;99.90;;;;;;5035503;28;19913;-74
2022/10/23 14:05:05;;;;;;;;;;;17.00;99.90;;;;;;5035290;28;19963;-75
2022/10/23 14:07:31;;;;;;;;;;;17.00;99.90;;;;;;5035331;28;20564;-75
2022/10/23 14:09:56;;;;;;;;;;;17.00;99.90;;;;;;5035404;28;19955;-75
2022/10/23 14:12:22;;;;;;;;;;;17.00;99.90;;;;;;5034867;28;19963;-75
2022/10/23 14:14:51;;;;;;;;;;;17.00;99.90;;;;;;5035553;28;20378;-76
2022/10/23 14:17:16;;;;;;;;;;;17.00;99.90;;;;;;5034921;28;19948;-75
2022/10/23 14:19:42;;;;;;;;;;;17.00;99.90;;;;;;5035610;28;19949;-75
2022/10/23 14:22:08;;;;;;;;;;;17.00;99.90;;;;;;5035378;28;19916;-74
2022/10/23 14:24:34;;;;;;;;;;;17.00;99.90;;;;;;5034389;28;20082;-75